createdAt,value
2017-04-10T03:00:38.694Z,20.59
2017-04-10T03:01:04.293Z,20.54
2017-04-10T03:01:29.854Z,20.51
2017-04-10T03:01:55.419Z,20.58
2017-04-10T03:02:21.048Z,20.54
2017-04-10T03:02:46.618Z,20.53
2017-04-10T03:03:12.162Z,20.54
2017-04-10T03:03:37.724Z,20.54
2017-04-10T03:04:03.373Z,20.54
2017-04-10T03:04:28.913Z,20.51
2017-04-10T03:04:54.455Z,20.5
2017-04-10T03:05:20.001Z,20.53
2017-04-10T03:05:45.540Z,20.54
2017-04-10T03:06:11.122Z,20.51
2017-04-10T03:06:36.691Z,20.58
2017-04-10T03:07:02.263Z,20.56
2017-04-10T03:07:27.825Z,20.54
2017-04-10T03:07:53.385Z,20.51
2017-04-10T03:08:18.964Z,20.56
2017-04-10T03:08:44.581Z,20.62
2017-04-10T03:09:10.234Z,20.56
2017-04-10T03:09:35.784Z,20.53
2017-04-10T03:10:01.391Z,20.53
2017-04-10T03:10:26.963Z,20.59
2017-04-10T03:10:52.533Z,20.56
2017-04-10T03:11:18.211Z,20.53
2017-04-10T03:11:43.782Z,20.46
2017-04-10T03:12:09.344Z,20.56
2017-04-10T03:12:34.915Z,20.56
2017-04-10T03:13:00.598Z,20.49
2017-04-10T03:13:26.141Z,20.54
2017-04-10T03:13:51.678Z,20.61
2017-04-10T03:14:17.237Z,20.54
2017-04-10T03:14:42.790Z,20.53
2017-04-10T03:15:08.380Z,20.58
2017-04-10T03:16:01.688Z,20.51
2017-04-10T03:16:27.253Z,20.54
2017-04-10T03:16:52.964Z,20.54
2017-04-10T03:17:18.579Z,20.51
2017-04-10T03:17:44.129Z,20.59
2017-04-10T03:18:09.703Z,20.58
2017-04-10T03:18:35.285Z,20.61
2017-04-10T03:19:00.838Z,20.56
2017-04-10T03:19:26.388Z,20.54
2017-04-10T03:19:51.940Z,20.51
2017-04-10T03:20:17.526Z,20.56
2017-04-10T03:20:43.102Z,20.54
2017-04-10T03:21:08.675Z,20.54
2017-04-10T03:21:34.248Z,20.51
2017-04-10T03:21:59.906Z,20.56
2017-04-10T03:22:25.571Z,20.62
2017-04-10T03:22:51.135Z,20.53
2017-04-10T03:23:16.751Z,20.54
2017-04-10T03:23:42.303Z,20.59
2017-04-10T03:24:07.864Z,20.56
2017-04-10T03:24:33.418Z,20.51
2017-04-10T03:24:58.982Z,20.61
2017-04-10T03:25:24.608Z,20.54
2017-04-10T03:25:50.168Z,20.51
2017-04-10T03:26:15.731Z,20.59
2017-04-10T03:26:41.288Z,20.5
2017-04-10T03:27:06.846Z,20.61
2017-04-10T03:27:32.540Z,20.58
2017-04-10T03:27:58.114Z,20.56
2017-04-10T03:28:23.765Z,20.54
2017-04-10T03:28:49.331Z,20.53
2017-04-10T03:29:14.882Z,20.58
2017-04-10T03:29:40.440Z,20.56
2017-04-10T03:30:05.981Z,20.62
2017-04-10T03:30:31.533Z,20.58
2017-04-10T03:30:57.066Z,20.61
2017-04-10T03:31:22.600Z,20.56
2017-04-10T03:31:48.145Z,20.53
2017-04-10T03:32:13.682Z,20.5
2017-04-10T03:32:39.240Z,20.59
2017-04-10T03:33:04.802Z,20.51
2017-04-10T03:33:30.433Z,20.51
2017-04-10T03:33:55.971Z,20.59
2017-04-10T03:34:21.568Z,20.51
2017-04-10T03:34:47.107Z,20.51
2017-04-10T03:35:12.670Z,20.62
2017-04-10T03:35:38.252Z,20.53
2017-04-10T03:36:03.813Z,20.59
2017-04-10T03:36:29.385Z,20.53
2017-04-10T03:36:55.106Z,20.54
2017-04-10T03:37:20.650Z,20.53
2017-04-10T03:37:46.221Z,20.59
2017-04-10T03:38:11.768Z,20.56
2017-04-10T03:38:37.333Z,20.56
2017-04-10T03:39:02.903Z,20.56
2017-04-10T03:39:28.450Z,20.53
2017-04-10T03:39:54.009Z,20.58
2017-04-10T03:40:19.653Z,20.53
2017-04-10T03:40:45.208Z,20.61
2017-04-10T03:41:10.773Z,20.54
2017-04-10T03:41:36.331Z,20.53
2017-04-10T03:42:01.898Z,20.61
2017-04-10T03:42:27.480Z,20.58
2017-04-10T03:42:53.021Z,20.54
2017-04-10T03:43:18.588Z,20.49
2017-04-10T03:43:44.142Z,20.54
2017-04-10T03:44:09.708Z,20.5
2017-04-10T03:44:35.287Z,20.51
2017-04-10T03:45:00.856Z,20.51
2017-04-10T03:45:26.413Z,20.53
2017-04-10T03:45:51.984Z,20.47
2017-04-10T03:46:17.633Z,20.54
2017-04-10T03:46:43.178Z,20.51
2017-04-10T03:47:08.752Z,20.56
2017-04-10T03:47:34.322Z,20.53
2017-04-10T03:47:59.884Z,20.53
2017-04-10T03:48:25.486Z,20.53
2017-04-10T03:48:51.029Z,20.56
2017-04-10T03:49:59.752Z,20.58
2017-04-10T03:52:07.023Z,20.53
2017-04-10T03:52:32.581Z,20.56
2017-04-10T03:52:58.139Z,20.51
2017-04-10T03:53:23.700Z,20.54
2017-04-10T03:53:49.291Z,20.53
2017-04-10T03:54:14.839Z,20.53
2017-04-10T03:54:40.391Z,20.59
2017-04-10T03:55:05.952Z,20.64
2017-04-10T03:55:31.516Z,20.51
2017-04-10T03:55:57.084Z,20.51
2017-04-10T03:56:22.639Z,20.54
2017-04-10T03:56:48.206Z,20.51
2017-04-10T03:57:13.764Z,20.59
2017-04-10T03:57:39.328Z,20.49
2017-04-10T03:58:04.881Z,20.64
2017-04-10T03:58:30.433Z,20.58
2017-04-10T03:58:55.981Z,20.5
2017-04-10T03:59:21.740Z,20.54
2017-04-10T03:59:47.312Z,20.58
2017-04-10T04:00:12.861Z,20.51
2017-04-10T04:00:38.415Z,20.51
2017-04-10T04:01:03.982Z,20.53
2017-04-10T04:01:29.578Z,20.51
2017-04-10T04:01:55.134Z,20.56
2017-04-10T04:02:20.693Z,20.53
2017-04-10T04:02:46.259Z,20.54
2017-04-10T04:03:11.828Z,20.61
2017-04-10T04:03:37.401Z,20.54
2017-04-10T04:04:02.958Z,20.54
2017-04-10T04:04:28.502Z,20.56
2017-04-10T04:04:54.058Z,20.59
2017-04-10T04:05:19.619Z,20.51
2017-04-10T04:05:45.188Z,20.51
2017-04-10T04:06:10.758Z,20.59
2017-04-10T04:06:36.305Z,20.49
2017-04-10T04:07:01.868Z,20.51
2017-04-10T04:07:27.447Z,20.58
2017-04-10T04:07:53.033Z,20.49
2017-04-10T04:08:18.591Z,20.5
2017-04-10T04:08:44.153Z,20.51
2017-04-10T04:09:09.713Z,20.53
2017-04-10T04:09:35.401Z,20.53
2017-04-10T04:10:00.963Z,20.54
2017-04-10T04:10:26.512Z,20.56
2017-04-10T04:10:52.210Z,20.51
2017-04-10T04:11:17.770Z,20.54
2017-04-10T04:11:43.353Z,20.49
2017-04-10T04:12:08.969Z,20.46
2017-04-10T04:12:34.583Z,20.53
2017-04-10T04:13:00.150Z,20.49
2017-04-10T04:13:25.737Z,20.56
2017-04-10T04:13:51.295Z,20.51
2017-04-10T04:14:16.857Z,20.54
2017-04-10T04:14:42.429Z,20.47
2017-04-10T04:15:07.984Z,20.56
2017-04-10T04:15:33.564Z,20.53
2017-04-10T04:15:59.180Z,20.51
2017-04-10T04:16:24.731Z,20.5
2017-04-10T04:16:50.305Z,20.53
2017-04-10T04:17:15.873Z,20.53
2017-04-10T04:17:41.557Z,20.51
2017-04-10T04:18:07.125Z,20.47
2017-04-10T04:18:32.823Z,20.49
2017-04-10T04:18:58.388Z,20.53
2017-04-10T04:19:23.954Z,20.53
2017-04-10T04:19:49.519Z,20.56
2017-04-10T04:20:15.096Z,20.49
2017-04-10T04:20:40.664Z,20.56
2017-04-10T04:21:06.259Z,20.47
2017-04-10T04:21:31.824Z,20.47
2017-04-10T04:21:57.393Z,20.53
2017-04-10T04:22:22.996Z,20.49
2017-04-10T04:22:48.565Z,20.49
2017-04-10T04:23:14.142Z,20.5
2017-04-10T04:23:39.801Z,20.49
2017-04-10T04:24:05.423Z,20.49
2017-04-10T04:24:31.012Z,20.5
2017-04-10T04:24:56.542Z,20.51
2017-04-10T04:25:22.192Z,20.53
2017-04-10T04:25:47.780Z,20.49
2017-04-10T04:26:13.354Z,20.56
2017-04-10T04:26:38.907Z,20.58
2017-04-10T04:27:04.534Z,20.51
2017-04-10T04:27:30.087Z,20.5
2017-04-10T04:27:56.248Z,20.49
2017-04-10T04:28:21.364Z,20.49
2017-04-10T04:28:46.922Z,20.49
2017-04-10T04:29:12.475Z,20.5
2017-04-10T04:29:38.063Z,20.54
2017-04-10T04:30:03.634Z,20.58
2017-04-10T04:30:29.183Z,20.49
2017-04-10T04:30:54.787Z,20.49
2017-04-10T04:31:20.332Z,20.56
2017-04-10T04:31:45.961Z,20.49
2017-04-10T04:32:11.576Z,20.51
2017-04-10T04:32:37.135Z,20.61
2017-04-10T04:33:02.783Z,20.47
2017-04-10T04:33:28.367Z,20.49
2017-04-10T04:33:53.934Z,20.56
2017-04-10T04:34:19.509Z,20.49
2017-04-10T04:34:45.078Z,20.54
2017-04-10T04:35:10.643Z,20.49
2017-04-10T04:35:36.206Z,20.5
2017-04-10T04:36:01.774Z,20.5
2017-04-10T04:36:27.343Z,20.51
2017-04-10T04:36:52.915Z,20.51
2017-04-10T04:37:18.565Z,20.62
2017-04-10T04:37:44.135Z,20.47
2017-04-10T04:38:09.703Z,20.54
2017-04-10T04:38:35.272Z,20.54
2017-04-10T04:39:00.837Z,20.53
2017-04-10T04:39:26.409Z,20.49
2017-04-10T04:39:51.993Z,20.51
2017-04-10T04:40:17.551Z,20.51
2017-04-10T04:40:43.108Z,20.54
2017-04-10T04:41:08.671Z,20.54
2017-04-10T04:41:34.244Z,20.58
2017-04-10T04:41:59.822Z,20.53
2017-04-10T04:42:25.396Z,20.54
2017-04-10T04:42:50.951Z,20.54
2017-04-10T04:43:16.534Z,20.5
2017-04-10T04:43:42.092Z,20.61
2017-04-10T04:44:07.650Z,20.53
2017-04-10T04:44:33.292Z,20.49
2017-04-10T04:44:58.854Z,20.58
2017-04-10T04:45:24.414Z,20.54
2017-04-10T04:45:50.078Z,20.54
2017-04-10T04:46:15.655Z,20.5
2017-04-10T04:46:41.223Z,20.51
2017-04-10T04:47:06.815Z,20.61
2017-04-10T04:47:32.475Z,20.51
2017-04-10T04:47:58.044Z,20.56
2017-04-10T04:48:23.734Z,20.58
2017-04-10T04:48:49.286Z,20.51
2017-04-10T04:49:14.894Z,20.39
2017-04-10T04:49:40.461Z,20.47
2017-04-10T04:50:06.071Z,20.53
2017-04-10T04:50:31.630Z,20.47
2017-04-10T04:50:57.191Z,20.51
2017-04-10T04:51:22.774Z,20.51
2017-04-10T04:52:26.363Z,20.53
2017-04-10T04:52:51.922Z,20.54
2017-04-10T04:53:17.484Z,20.54
2017-04-10T04:53:43.039Z,20.38
2017-04-10T04:54:08.588Z,20.54
2017-04-10T04:54:34.162Z,20.59
2017-04-10T04:54:59.722Z,20.54
2017-04-10T04:55:25.255Z,20.54
2017-04-10T04:55:50.798Z,20.54
2017-04-10T04:56:16.341Z,20.39
2017-04-10T04:56:41.924Z,20.49
2017-04-10T04:57:07.485Z,20.47
2017-04-10T04:57:33.052Z,20.42
2017-04-10T04:57:58.614Z,20.51
2017-04-10T04:58:24.224Z,20.54
2017-04-10T04:58:49.792Z,20.53
2017-04-10T04:59:48.246Z,20.41
2017-04-10T05:00:13.805Z,20.43
2017-04-10T05:00:39.393Z,20.51
2017-04-10T05:01:04.953Z,20.51
2017-04-10T05:01:30.513Z,20.43
2017-04-10T05:01:56.124Z,20.39
2017-04-10T05:02:21.683Z,20.39
2017-04-10T05:02:47.251Z,20.42
2017-04-10T05:03:12.911Z,20.41
2017-04-10T05:03:38.512Z,20.56
2017-04-10T05:04:04.070Z,20.42
2017-04-10T05:04:29.649Z,20.53
2017-04-10T05:04:55.293Z,20.53
2017-04-10T05:05:20.845Z,20.42
2017-04-10T05:05:46.412Z,20.56
2017-04-10T05:06:49.936Z,20.54
2017-04-10T05:07:15.500Z,20.51
2017-04-10T05:07:41.150Z,20.41
2017-04-10T05:08:06.707Z,20.54
2017-04-10T05:08:32.258Z,20.39
2017-04-10T05:08:57.852Z,20.51
2017-04-10T05:09:23.540Z,20.39
2017-04-10T05:09:49.104Z,20.41
2017-04-10T05:10:14.663Z,20.42
2017-04-10T05:10:40.229Z,20.35
2017-04-10T05:11:05.801Z,20.43
2017-04-10T05:11:31.382Z,20.43
2017-04-10T05:11:56.981Z,20.35
2017-04-10T05:12:22.542Z,20.54
2017-04-10T05:12:48.144Z,20.42
2017-04-10T05:13:13.684Z,20.42
2017-04-10T05:13:39.225Z,20.43
2017-04-10T05:14:04.792Z,20.41
2017-04-10T05:14:30.370Z,20.39
2017-04-10T05:14:55.957Z,20.53
2017-04-10T05:15:21.531Z,20.38
2017-04-10T05:15:47.107Z,20.43
2017-04-10T05:16:12.798Z,20.43
2017-04-10T05:16:38.382Z,20.41
2017-04-10T05:17:03.933Z,20.42
2017-04-10T05:17:29.513Z,20.43
2017-04-10T05:17:55.080Z,20.35
2017-04-10T05:18:20.664Z,20.39
2017-04-10T05:18:46.237Z,20.43
2017-04-10T05:19:11.805Z,20.38
2017-04-10T05:19:37.892Z,20.42
2017-04-10T05:20:03.464Z,20.41
2017-04-10T05:20:29.022Z,20.41
2017-04-10T05:20:54.602Z,20.42
2017-04-10T05:21:20.191Z,20.38
2017-04-10T05:21:45.783Z,20.41
2017-04-10T05:22:11.344Z,20.39
2017-04-10T05:22:36.914Z,20.41
2017-04-10T05:23:02.543Z,20.41
2017-04-10T05:23:28.108Z,20.42
2017-04-10T05:24:36.673Z,20.43
2017-04-10T05:25:02.236Z,20.38
2017-04-10T05:27:09.423Z,20.35
2017-04-10T05:27:34.989Z,20.42
2017-04-10T05:28:00.560Z,20.38
2017-04-10T05:28:26.128Z,20.42
2017-04-10T05:28:51.699Z,20.41
2017-04-10T05:29:17.345Z,20.39
2017-04-10T05:29:42.914Z,20.33
2017-04-10T05:30:08.593Z,20.28
2017-04-10T05:30:34.174Z,20.33
2017-04-10T05:30:59.734Z,20.42
2017-04-10T05:31:25.315Z,20.41
2017-04-10T05:31:50.880Z,20.33
2017-04-10T05:32:16.460Z,20.46
2017-04-10T05:32:42.014Z,20.33
2017-04-10T05:33:07.642Z,20.34
2017-04-10T05:33:33.291Z,20.38
2017-04-10T05:33:58.858Z,20.42
2017-04-10T05:34:24.405Z,20.34
2017-04-10T05:34:49.974Z,20.39
2017-04-10T05:35:15.715Z,20.41
2017-04-10T05:35:41.289Z,20.34
2017-04-10T05:36:06.941Z,20.28
2017-04-10T05:36:32.502Z,20.39
2017-04-10T05:36:59.092Z,20.39
2017-04-10T05:37:24.663Z,20.35
2017-04-10T05:37:50.221Z,20.39
2017-04-10T05:38:15.922Z,20.33
2017-04-10T05:38:41.483Z,20.43
2017-04-10T05:39:07.044Z,20.42
2017-04-10T05:39:32.684Z,20.39
2017-04-10T05:39:58.331Z,20.25
2017-04-10T05:40:23.912Z,20.33
2017-04-10T05:40:49.496Z,20.43
2017-04-10T05:41:15.123Z,20.41
2017-04-10T05:41:40.753Z,20.39
2017-04-10T05:42:06.312Z,20.31
2017-04-10T05:42:31.948Z,20.33
2017-04-10T05:42:57.570Z,20.33
2017-04-10T05:43:23.131Z,20.46
2017-04-10T05:43:48.697Z,20.33
2017-04-10T05:44:14.269Z,20.39
2017-04-10T05:44:39.832Z,20.38
2017-04-10T05:45:05.390Z,20.34
2017-04-10T05:45:30.966Z,20.31
2017-04-10T05:45:56.524Z,20.33
2017-04-10T05:46:22.103Z,20.3
2017-04-10T05:46:47.663Z,20.41
2017-04-10T05:47:13.220Z,20.3
2017-04-10T05:47:38.778Z,20.46
2017-04-10T05:48:04.451Z,20.42
2017-04-10T05:48:30.000Z,20.33
2017-04-10T05:48:55.545Z,20.35
2017-04-10T05:49:21.082Z,20.31
2017-04-10T05:49:46.672Z,20.34
2017-04-10T05:50:12.278Z,20.39
2017-04-10T05:50:37.852Z,20.42
2017-04-10T05:51:03.413Z,20.34
2017-04-10T05:51:28.984Z,20.42
2017-04-10T05:51:54.569Z,20.35
2017-04-10T05:52:20.128Z,20.39
2017-04-10T05:52:45.700Z,20.31
2017-04-10T05:53:11.257Z,20.43
2017-04-10T05:53:36.815Z,20.33
2017-04-10T05:54:02.478Z,20.34
2017-04-10T05:54:28.044Z,20.33
2017-04-10T05:54:53.625Z,20.3
2017-04-10T05:55:19.193Z,20.27
2017-04-10T05:55:44.763Z,20.43
2017-04-10T05:56:10.323Z,20.41
2017-04-10T05:56:35.902Z,20.35
2017-04-10T05:57:01.450Z,20.33
2017-04-10T05:57:27.007Z,20.31
2017-04-10T05:57:52.777Z,20.31
2017-04-10T05:58:19.162Z,20.39
2017-04-10T05:58:44.753Z,20.3
2017-04-10T05:59:10.313Z,20.31
2017-04-10T05:59:35.876Z,20.35
2017-04-10T06:00:01.425Z,20.31
2017-04-10T06:00:26.980Z,20.39
2017-04-10T06:01:15.078Z,20.34
2017-04-10T06:01:40.644Z,20.34
2017-04-10T06:02:06.230Z,20.42
2017-04-10T06:02:31.805Z,20.41
2017-04-10T06:02:57.370Z,20.28
2017-04-10T06:03:22.970Z,20.33
2017-04-10T06:03:48.533Z,20.41
2017-04-10T06:04:14.082Z,20.34
2017-04-10T06:04:39.648Z,20.33
2017-04-10T06:05:05.364Z,20.31
2017-04-10T06:05:30.977Z,20.39
2017-04-10T06:05:56.528Z,20.33
2017-04-10T06:06:22.250Z,20.41
2017-04-10T06:06:47.791Z,20.42
2017-04-10T06:07:13.345Z,20.38
2017-04-10T06:07:38.890Z,20.31
2017-04-10T06:08:04.461Z,20.28
2017-04-10T06:08:30.056Z,20.33
2017-04-10T06:08:55.609Z,20.35
2017-04-10T06:09:21.145Z,20.33
2017-04-10T06:09:46.720Z,20.3
2017-04-10T06:10:12.353Z,20.35
2017-04-10T06:10:37.903Z,20.38
2017-04-10T06:11:03.437Z,20.27
2017-04-10T06:11:28.979Z,20.39
2017-04-10T06:11:54.512Z,20.35
2017-04-10T06:12:20.216Z,20.35
2017-04-10T06:12:45.773Z,20.43
2017-04-10T06:13:11.304Z,20.28
2017-04-10T06:13:36.960Z,20.3
2017-04-10T06:14:02.538Z,20.39
2017-04-10T06:14:28.162Z,20.41
2017-04-10T06:14:53.744Z,20.35
2017-04-10T06:15:19.394Z,20.38
2017-04-10T06:15:44.956Z,20.27
2017-04-10T06:16:10.559Z,20.34
2017-04-10T06:16:36.216Z,20.27
2017-04-10T06:17:01.770Z,20.38
2017-04-10T06:17:27.338Z,20.38
2017-04-10T06:17:52.909Z,20.33
2017-04-10T06:18:18.478Z,20.38
2017-04-10T06:18:44.039Z,20.34
2017-04-10T06:19:09.669Z,20.38
2017-04-10T06:19:35.256Z,20.25
2017-04-10T06:20:01.128Z,20.35
2017-04-10T06:20:26.683Z,20.34
2017-04-10T06:20:52.287Z,20.28
2017-04-10T06:21:17.864Z,20.24
2017-04-10T06:21:43.462Z,20.3
2017-04-10T06:22:09.030Z,20.33
2017-04-10T06:22:34.595Z,20.33
2017-04-10T06:23:00.372Z,20.41
2017-04-10T06:23:25.941Z,20.33
2017-04-10T06:23:51.544Z,20.27
2017-04-10T06:24:17.199Z,20.35
2017-04-10T06:24:42.760Z,20.34
2017-04-10T06:25:08.330Z,20.41
2017-04-10T06:25:33.926Z,20.38
2017-04-10T06:25:59.510Z,20.43
2017-04-10T06:26:25.095Z,20.3
2017-04-10T06:26:50.688Z,20.34
2017-04-10T06:27:16.236Z,20.35
2017-04-10T06:27:41.783Z,20.42
2017-04-10T06:28:07.400Z,20.35
2017-04-10T06:28:32.974Z,20.33
2017-04-10T06:28:58.531Z,20.43
2017-04-10T06:29:24.094Z,20.27
2017-04-10T06:30:17.443Z,20.28
2017-04-10T06:30:43.001Z,20.34
2017-04-10T06:31:08.617Z,20.41
2017-04-10T06:31:34.169Z,20.3
2017-04-10T06:31:59.834Z,20.28
2017-04-10T06:32:25.418Z,20.3
2017-04-10T06:32:50.967Z,20.41
2017-04-10T06:33:16.515Z,20.34
2017-04-10T06:33:42.073Z,20.25
2017-04-10T06:34:07.682Z,20.41
2017-04-10T06:34:33.232Z,20.3
2017-04-10T06:34:58.824Z,20.3
2017-04-10T06:35:24.395Z,20.3
2017-04-10T06:35:49.973Z,20.42
2017-04-10T06:36:15.572Z,20.35
2017-04-10T06:36:41.114Z,20.31
2017-04-10T06:37:06.672Z,20.38
2017-04-10T06:37:32.423Z,20.3
2017-04-10T06:37:57.984Z,20.41
2017-04-10T06:38:23.554Z,20.25
2017-04-10T06:38:49.186Z,20.31
2017-04-10T06:39:37.324Z,20.27
2017-04-10T06:40:02.960Z,20.34
2017-04-10T06:40:28.564Z,20.38
2017-04-10T06:40:54.125Z,20.35
2017-04-10T06:41:19.840Z,20.3
2017-04-10T06:41:45.371Z,20.3
2017-04-10T06:42:11.011Z,20.28
2017-04-10T06:43:04.006Z,20.35
2017-04-10T06:43:29.570Z,20.35
2017-04-10T06:43:55.132Z,20.25
2017-04-10T06:44:20.691Z,20.34
2017-04-10T06:44:46.412Z,20.34
2017-04-10T06:45:12.006Z,20.35
2017-04-10T06:45:37.576Z,20.34
2017-04-10T06:46:03.135Z,20.35
2017-04-10T06:46:28.800Z,20.25
2017-04-10T06:46:54.360Z,20.31
2017-04-10T06:47:19.971Z,20.3
2017-04-10T06:47:45.546Z,20.31
2017-04-10T06:48:11.135Z,20.25
2017-04-10T06:48:36.701Z,20.33
2017-04-10T06:49:02.264Z,20.31
2017-04-10T06:49:27.843Z,20.27
2017-04-10T06:49:53.400Z,20.27
2017-04-10T06:50:18.973Z,20.31
2017-04-10T06:50:44.551Z,20.3
2017-04-10T06:51:10.173Z,20.25
2017-04-10T06:51:35.729Z,20.27
2017-04-10T06:52:01.282Z,20.31
2017-04-10T06:52:26.960Z,20.33
2017-04-10T06:52:52.513Z,20.24
2017-04-10T06:53:18.079Z,20.3
2017-04-10T06:53:43.648Z,20.34
2017-04-10T06:54:09.234Z,20.35
2017-04-10T06:54:34.793Z,20.27
2017-04-10T06:55:00.365Z,20.35
2017-04-10T06:55:25.920Z,20.35
2017-04-10T06:55:51.495Z,20.34
2017-04-10T06:56:17.052Z,20.31
2017-04-10T06:56:42.752Z,20.3
2017-04-10T06:57:08.311Z,20.23
2017-04-10T06:57:33.971Z,20.35
2017-04-10T06:57:59.567Z,20.34
2017-04-10T06:58:25.113Z,20.38
2017-04-10T06:58:50.674Z,20.33
2017-04-10T06:59:16.378Z,20.3
2017-04-10T06:59:41.965Z,20.28
2017-04-10T07:00:45.404Z,20.31
2017-04-10T07:01:10.954Z,20.3
2017-04-10T07:01:37.986Z,20.3
2017-04-10T07:03:44.057Z,20.3
2017-04-10T07:04:09.610Z,20.33
2017-04-10T07:04:35.194Z,20.28
2017-04-10T07:05:00.742Z,20.25
2017-04-10T07:05:26.433Z,20.33
2017-04-10T07:05:52.157Z,20.27
2017-04-10T07:06:17.710Z,20.28
2017-04-10T07:06:43.302Z,20.34
2017-04-10T07:07:08.881Z,20.33
2017-04-10T07:07:34.426Z,20.3
2017-04-10T07:07:59.990Z,20.28
2017-04-10T07:08:25.546Z,20.28
2017-04-10T07:08:51.119Z,20.25
2017-04-10T07:09:16.693Z,20.31
2017-04-10T07:09:42.229Z,20.23
2017-04-10T07:10:07.786Z,20.24
2017-04-10T07:10:33.457Z,20.25
2017-04-10T07:10:59.021Z,20.25
2017-04-10T07:11:24.608Z,20.27
2017-04-10T07:11:50.175Z,20.33
2017-04-10T07:12:15.724Z,20.21
2017-04-10T07:12:41.278Z,20.25
2017-04-10T07:13:06.835Z,20.27
2017-04-10T07:13:32.394Z,20.28
2017-04-10T07:13:58.067Z,20.24
2017-04-10T07:14:23.631Z,20.24
2017-04-10T07:14:49.194Z,20.25
2017-04-10T07:15:14.747Z,20.27
2017-04-10T07:15:40.441Z,20.25
2017-04-10T07:16:06.011Z,20.25
2017-04-10T07:16:31.581Z,20.23
2017-04-10T07:16:57.151Z,20.28
2017-04-10T07:17:22.727Z,20.25
2017-04-10T07:17:48.287Z,20.28
2017-04-10T07:18:13.822Z,20.24
2017-04-10T07:18:39.404Z,20.2
2017-04-10T07:19:04.965Z,20.25
2017-04-10T07:19:30.547Z,20.28
2017-04-10T07:19:56.097Z,20.21
2017-04-10T07:20:21.656Z,20.21
2017-04-10T07:20:47.225Z,20.28
2017-04-10T07:21:12.798Z,20.28
2017-04-10T07:21:38.424Z,20.27
2017-04-10T07:22:04.000Z,20.24
2017-04-10T07:22:29.569Z,20.25
2017-04-10T07:22:55.164Z,20.24
2017-04-10T07:23:20.734Z,20.28
2017-04-10T07:23:46.272Z,20.27
2017-04-10T07:24:11.851Z,20.25
2017-04-10T07:24:37.425Z,20.23
2017-04-10T07:25:02.985Z,20.27
2017-04-10T07:25:28.577Z,20.25
2017-04-10T07:25:54.135Z,20.3
2017-04-10T07:26:19.693Z,20.23
2017-04-10T07:26:45.315Z,20.25
2017-04-10T07:27:10.882Z,20.21
2017-04-10T07:27:36.464Z,20.3
2017-04-10T07:28:02.012Z,20.24
2017-04-10T07:28:27.761Z,20.25
2017-04-10T07:28:53.323Z,20.25
2017-04-10T07:29:18.891Z,20.23
2017-04-10T07:29:44.472Z,20.25
2017-04-10T07:30:10.043Z,20.25
2017-04-10T07:30:35.618Z,20.24
2017-04-10T07:31:01.271Z,20.28
2017-04-10T07:31:26.886Z,20.25
2017-04-10T07:31:52.453Z,20.24
2017-04-10T07:32:18.173Z,20.25
2017-04-10T07:32:43.749Z,20.3
2017-04-10T07:33:09.314Z,20.23
2017-04-10T07:33:34.866Z,20.23
2017-04-10T07:34:00.446Z,20.3
2017-04-10T07:34:26.012Z,20.27
2017-04-10T07:34:51.582Z,20.18
2017-04-10T07:35:17.150Z,20.2
2017-04-10T07:35:42.737Z,20.28
2017-04-10T07:36:08.379Z,20.28
2017-04-10T07:36:33.955Z,20.28
2017-04-10T07:36:59.517Z,20.3
2017-04-10T07:37:25.086Z,20.24
2017-04-10T07:37:50.698Z,20.28
2017-04-10T07:38:16.263Z,20.27
2017-04-10T07:38:41.838Z,20.18
2017-04-10T07:39:07.519Z,20.24
2017-04-10T07:39:33.086Z,20.24
2017-04-10T07:39:58.649Z,20.27
2017-04-10T07:40:24.326Z,20.23
2017-04-10T07:40:49.912Z,20.24
2017-04-10T07:41:15.479Z,20.27
2017-04-10T07:41:41.177Z,20.23
2017-04-10T07:42:06.805Z,20.28
2017-04-10T07:42:32.371Z,20.28
2017-04-10T07:42:58.003Z,20.27
2017-04-10T07:43:23.608Z,20.28
2017-04-10T07:43:53.777Z,20.25
2017-04-10T07:44:19.361Z,20.24
2017-04-10T07:44:44.917Z,20.24
2017-04-10T07:45:10.606Z,20.25
2017-04-10T07:45:36.167Z,20.23
2017-04-10T07:46:01.741Z,20.2
2017-04-10T07:46:27.325Z,20.23
2017-04-10T07:46:52.882Z,20.24
2017-04-10T07:47:18.449Z,20.27
2017-04-10T07:47:44.024Z,20.16
2017-04-10T07:48:09.584Z,20.24
2017-04-10T07:48:35.163Z,20.24
2017-04-10T07:49:00.801Z,20.25
2017-04-10T07:49:26.384Z,20.27
2017-04-10T07:49:52.041Z,20.25
2017-04-10T07:50:17.604Z,20.21
2017-04-10T07:50:43.165Z,20.2
2017-04-10T07:51:08.714Z,20.2
2017-04-10T07:52:12.314Z,20.23
2017-04-10T07:52:37.895Z,20.2
2017-04-10T07:53:03.466Z,20.28
2017-04-10T07:53:29.006Z,20.18
2017-04-10T07:53:54.583Z,20.21
2017-04-10T07:54:20.150Z,20.25
2017-04-10T07:54:45.719Z,20.2
2017-04-10T07:55:11.292Z,20.21
2017-04-10T07:55:36.950Z,20.23
2017-04-10T07:56:02.522Z,20.18
2017-04-10T07:56:28.090Z,20.28
2017-04-10T07:56:53.661Z,20.24
2017-04-10T07:57:19.287Z,20.2
2017-04-10T07:57:44.883Z,20.27
2017-04-10T07:58:10.446Z,20.28
2017-04-10T07:58:36.005Z,20.2
2017-04-10T07:59:01.561Z,20.21
2017-04-10T07:59:27.185Z,20.24
2017-04-10T07:59:52.768Z,20.27
2017-04-10T08:00:18.343Z,20.24
2017-04-10T08:00:44.004Z,20.21
2017-04-10T08:01:09.606Z,20.27
2017-04-10T08:01:35.175Z,20.2
2017-04-10T08:02:00.736Z,20.23
2017-04-10T08:02:26.341Z,20.2
2017-04-10T08:02:51.905Z,20.23
2017-04-10T08:03:17.458Z,20.2
2017-04-10T08:03:43.021Z,20.23
2017-04-10T08:04:08.558Z,20.2
2017-04-10T08:04:34.160Z,20.23
2017-04-10T08:04:59.767Z,20.27
2017-04-10T08:05:25.291Z,20.27
2017-04-10T08:05:50.850Z,20.27
2017-04-10T08:06:16.399Z,20.18
2017-04-10T08:06:41.995Z,20.18
2017-04-10T08:07:07.535Z,20.2
2017-04-10T08:07:33.121Z,20.2
2017-04-10T08:07:58.659Z,20.2
2017-04-10T08:08:24.221Z,20.25
2017-04-10T08:08:49.761Z,20.25
2017-04-10T08:09:15.301Z,20.18
2017-04-10T08:09:40.879Z,20.24
2017-04-10T08:10:06.445Z,20.2
2017-04-10T08:10:31.990Z,20.27
2017-04-10T08:10:57.587Z,20.27
2017-04-10T08:11:23.143Z,20.21
2017-04-10T08:11:48.688Z,20.2
2017-04-10T08:12:14.262Z,20.2
2017-04-10T08:12:39.801Z,20.2
2017-04-10T08:13:05.359Z,20.27
2017-04-10T08:13:30.907Z,20.23
2017-04-10T08:13:56.439Z,20.28
2017-04-10T08:14:22.026Z,20.25
2017-04-10T08:14:47.623Z,20.18
2017-04-10T08:15:13.255Z,20.2
2017-04-10T08:15:38.823Z,20.24
2017-04-10T08:16:04.431Z,20.25
2017-04-10T08:16:30.015Z,20.25
2017-04-10T08:16:55.596Z,20.21
2017-04-10T08:17:21.161Z,20.2
2017-04-10T08:17:46.716Z,20.15
2017-04-10T08:18:12.477Z,20.23
2017-04-10T08:18:38.057Z,20.18
2017-04-10T08:19:03.594Z,20.15
2017-04-10T08:19:29.153Z,20.23
2017-04-10T08:19:54.731Z,20.21
2017-04-10T08:20:20.272Z,20.21
2017-04-10T08:20:45.837Z,20.25
2017-04-10T08:21:11.395Z,20.23
2017-04-10T08:21:36.973Z,20.18
2017-04-10T08:22:02.592Z,20.21
2017-04-10T08:22:28.191Z,20.25
2017-04-10T08:22:53.746Z,20.21
2017-04-10T08:23:19.284Z,20.25
2017-04-10T08:23:44.869Z,20.2
2017-04-10T08:24:10.401Z,20.25
2017-04-10T08:24:35.956Z,20.2
2017-04-10T08:25:01.530Z,20.18
2017-04-10T08:25:27.100Z,20.24
2017-04-10T08:25:52.698Z,20.18
2017-04-10T08:26:18.251Z,20.2
2017-04-10T08:26:43.802Z,20.27
2017-04-10T08:27:09.488Z,20.25
2017-04-10T08:27:35.177Z,20.18
2017-04-10T08:28:00.734Z,20.16
2017-04-10T08:28:26.384Z,20.18
2017-04-10T08:28:51.933Z,20.18
2017-04-10T08:29:17.973Z,20.18
2017-04-10T08:29:43.690Z,20.21
2017-04-10T08:30:09.259Z,20.21
2017-04-10T08:30:34.837Z,20.23
2017-04-10T08:31:00.394Z,20.21
2017-04-10T08:31:26.005Z,20.18
2017-04-10T08:31:51.578Z,20.2
2017-04-10T08:32:17.173Z,20.21
2017-04-10T08:32:42.783Z,20.2
2017-04-10T08:33:08.405Z,20.18
2017-04-10T08:33:34.034Z,20.21
2017-04-10T08:33:59.605Z,20.15
2017-04-10T08:34:25.240Z,20.2
2017-04-10T08:34:50.800Z,20.18
2017-04-10T08:35:16.543Z,20.21
2017-04-10T08:35:42.131Z,20.25
2017-04-10T08:36:07.694Z,20.16
2017-04-10T08:36:33.321Z,20.2
2017-04-10T08:36:58.878Z,20.18
2017-04-10T08:37:24.457Z,20.18
2017-04-10T08:37:49.989Z,20.23
2017-04-10T08:38:15.567Z,20.23
2017-04-10T08:38:41.110Z,20.21
2017-04-10T08:39:06.701Z,20.2
2017-04-10T08:39:32.277Z,20.18
2017-04-10T08:39:57.841Z,20.2
2017-04-10T08:40:23.592Z,20.21
2017-04-10T08:40:49.151Z,20.23
2017-04-10T08:41:14.756Z,20.21
2017-04-10T08:41:40.307Z,20.21
2017-04-10T08:42:05.923Z,20.2
2017-04-10T08:42:31.502Z,20.21
2017-04-10T08:42:57.105Z,20.21